sensor_id;sensor_type;location;lat;lon;timestamp;P1;durP1;ratioP1;P2;durP2;ratioP2
54269;SDS011;40181;51.560;13.000;2022-07-22T00:02:05;4.75;;;3.35;;
54269;SDS011;40181;51.560;13.000;2022-07-22T00:04:35;4.47;;;3.10;;
54269;SDS011;40181;51.560;13.000;2022-07-22T00:07:03;4.43;;;3.67;;
54269;SDS011;40181;51.560;13.000;2022-07-22T00:09:32;4.65;;;3.75;;
54269;SDS011;40181;51.560;13.000;2022-07-22T00:12:03;2.83;;;2.58;;
54269;SDS011;40181;51.560;13.000;2022-07-22T00:14:32;4.38;;;2.50;;
54269;SDS011;40181;51.560;13.000;2022-07-22T00:17:00;4.78;;;2.92;;
54269;SDS011;40181;51.560;13.000;2022-07-22T00:19:29;12.18;;;2.85;;
54269;SDS011;40181;51.560;13.000;2022-07-22T00:21:57;3.25;;;2.15;;
54269;SDS011;40181;51.560;13.000;2022-07-22T00:24:26;2.55;;;2.22;;
54269;SDS011;40181;51.560;13.000;2022-07-22T00:26:54;2.97;;;2.22;;
54269;SDS011;40181;51.560;13.000;2022-07-22T00:29:26;2.83;;;1.95;;
54269;SDS011;40181;51.560;13.000;2022-07-22T00:31:54;2.38;;;1.63;;
54269;SDS011;40181;51.560;13.000;2022-07-22T00:34:22;3.08;;;1.83;;
54269;SDS011;40181;51.560;13.000;2022-07-22T00:36:51;4.97;;;2.35;;
54269;SDS011;40181;51.560;13.000;2022-07-22T00:39:19;2.90;;;2.05;;
54269;SDS011;40181;51.560;13.000;2022-07-22T00:41:47;2.90;;;2.17;;
54269;SDS011;40181;51.560;13.000;2022-07-22T00:44:16;4.22;;;2.20;;
54269;SDS011;40181;51.560;13.000;2022-07-22T00:46:47;1.88;;;1.65;;
54269;SDS011;40181;51.560;13.000;2022-07-22T00:49:15;1.35;;;1.20;;
54269;SDS011;40181;51.560;13.000;2022-07-22T00:51:43;2.42;;;1.55;;
54269;SDS011;40181;51.560;13.000;2022-07-22T00:54:14;3.10;;;2.03;;
54269;SDS011;40181;51.560;13.000;2022-07-22T00:56:42;2.05;;;1.70;;
54269;SDS011;40181;51.560;13.000;2022-07-22T00:59:11;1.95;;;1.40;;
54269;SDS011;40181;51.560;13.000;2022-07-22T01:01:40;1.88;;;1.52;;
54269;SDS011;40181;51.560;13.000;2022-07-22T01:04:11;3.88;;;2.30;;
54269;SDS011;40181;51.560;13.000;2022-07-22T01:06:40;2.92;;;2.47;;
54269;SDS011;40181;51.560;13.000;2022-07-22T01:09:10;2.40;;;1.88;;
54269;SDS011;40181;51.560;13.000;2022-07-22T01:11:38;5.90;;;2.28;;
54269;SDS011;40181;51.560;13.000;2022-07-22T01:14:07;2.13;;;1.52;;
54269;SDS011;40181;51.560;13.000;2022-07-22T01:16:36;2.78;;;1.80;;
54269;SDS011;40181;51.560;13.000;2022-07-22T01:19:04;2.70;;;2.15;;
54269;SDS011;40181;51.560;13.000;2022-07-22T01:21:35;1.42;;;1.23;;
54269;SDS011;40181;51.560;13.000;2022-07-22T01:24:04;2.47;;;1.85;;
54269;SDS011;40181;51.560;13.000;2022-07-22T01:26:34;3.50;;;2.03;;
54269;SDS011;40181;51.560;13.000;2022-07-22T01:29:02;3.85;;;2.28;;
54269;SDS011;40181;51.560;13.000;2022-07-22T01:31:31;2.67;;;1.50;;
54269;SDS011;40181;51.560;13.000;2022-07-22T01:33:59;2.13;;;1.50;;
54269;SDS011;40181;51.560;13.000;2022-07-22T01:36:28;3.80;;;1.77;;
54269;SDS011;40181;51.560;13.000;2022-07-22T01:38:59;3.25;;;2.33;;
54269;SDS011;40181;51.560;13.000;2022-07-22T01:41:27;2.75;;;1.90;;
54269;SDS011;40181;51.560;13.000;2022-07-22T01:43:56;1.70;;;1.35;;
54269;SDS011;40181;51.560;13.000;2022-07-22T01:46:24;4.63;;;2.00;;
54269;SDS011;40181;51.560;13.000;2022-07-22T01:48:52;2.80;;;2.03;;
54269;SDS011;40181;51.560;13.000;2022-07-22T01:51:21;2.80;;;1.83;;
54269;SDS011;40181;51.560;13.000;2022-07-22T01:53:49;2.10;;;1.45;;
54269;SDS011;40181;51.560;13.000;2022-07-22T01:56:20;2.53;;;1.23;;
54269;SDS011;40181;51.560;13.000;2022-07-22T01:58:49;3.17;;;1.83;;
54269;SDS011;40181;51.560;13.000;2022-07-22T02:01:17;3.38;;;1.60;;
54269;SDS011;40181;51.560;13.000;2022-07-22T02:03:46;3.63;;;1.30;;
54269;SDS011;40181;51.560;13.000;2022-07-22T02:06:14;4.85;;;1.80;;
54269;SDS011;40181;51.560;13.000;2022-07-22T02:08:42;3.03;;;1.80;;
54269;SDS011;40181;51.560;13.000;2022-07-22T02:11:11;1.88;;;1.33;;
54269;SDS011;40181;51.560;13.000;2022-07-22T02:13:42;2.67;;;1.50;;
54269;SDS011;40181;51.560;13.000;2022-07-22T02:16:10;2.15;;;1.40;;
54269;SDS011;40181;51.560;13.000;2022-07-22T02:18:39;1.10;;;1.00;;
54269;SDS011;40181;51.560;13.000;2022-07-22T02:21:07;2.15;;;1.40;;
54269;SDS011;40181;51.560;13.000;2022-07-22T02:23:35;0.98;;;0.85;;
54269;SDS011;40181;51.560;13.000;2022-07-22T02:26:04;2.60;;;1.52;;
54269;SDS011;40181;51.560;13.000;2022-07-22T02:28:32;2.03;;;1.50;;
54269;SDS011;40181;51.560;13.000;2022-07-22T02:31:03;3.70;;;1.35;;
54269;SDS011;40181;51.560;13.000;2022-07-22T02:33:32;4.30;;;1.80;;
54269;SDS011;40181;51.560;13.000;2022-07-22T02:36:00;2.70;;;1.65;;
54269;SDS011;40181;51.560;13.000;2022-07-22T02:38:28;2.28;;;1.50;;
54269;SDS011;40181;51.560;13.000;2022-07-22T02:40:56;2.05;;;1.60;;
54269;SDS011;40181;51.560;13.000;2022-07-22T02:43:25;1.60;;;1.50;;
54269;SDS011;40181;51.560;13.000;2022-07-22T02:45:53;2.15;;;1.73;;
54269;SDS011;40181;51.560;13.000;2022-07-22T02:48:24;2.83;;;2.00;;
54269;SDS011;40181;51.560;13.000;2022-07-22T02:50:52;2.25;;;1.48;;
54269;SDS011;40181;51.560;13.000;2022-07-22T02:53:21;2.40;;;1.40;;
54269;SDS011;40181;51.560;13.000;2022-07-22T02:55:49;3.42;;;2.40;;
54269;SDS011;40181;51.560;13.000;2022-07-22T02:58:17;4.13;;;2.00;;
54269;SDS011;40181;51.560;13.000;2022-07-22T03:00:46;2.65;;;1.67;;
54269;SDS011;40181;51.560;13.000;2022-07-22T03:03:14;2.38;;;1.58;;
54269;SDS011;40181;51.560;13.000;2022-07-22T03:05:45;2.10;;;1.73;;
54269;SDS011;40181;51.560;13.000;2022-07-22T03:08:13;1.67;;;1.40;;
54269;SDS011;40181;51.560;13.000;2022-07-22T03:10:42;2.58;;;1.67;;
54269;SDS011;40181;51.560;13.000;2022-07-22T03:13:10;2.25;;;1.38;;
54269;SDS011;40181;51.560;13.000;2022-07-22T03:15:38;2.00;;;1.30;;
54269;SDS011;40181;51.560;13.000;2022-07-22T03:18:07;2.53;;;2.00;;
54269;SDS011;40181;51.560;13.000;2022-07-22T03:20:35;3.50;;;2.05;;
54269;SDS011;40181;51.560;13.000;2022-07-22T03:23:06;1.88;;;1.33;;
54269;SDS011;40181;51.560;13.000;2022-07-22T03:25:34;2.78;;;1.95;;
54269;SDS011;40181;51.560;13.000;2022-07-22T03:28:04;2.33;;;1.65;;
54269;SDS011;40181;51.560;13.000;2022-07-22T03:30:32;2.65;;;2.10;;
54269;SDS011;40181;51.560;13.000;2022-07-22T03:33:00;2.60;;;1.92;;
54269;SDS011;40181;51.560;13.000;2022-07-22T03:35:29;2.30;;;1.70;;
54269;SDS011;40181;51.560;13.000;2022-07-22T03:37:57;2.80;;;1.92;;
54269;SDS011;40181;51.560;13.000;2022-07-22T03:40:29;2.20;;;1.27;;
54269;SDS011;40181;51.560;13.000;2022-07-22T03:42:58;1.92;;;1.38;;
54269;SDS011;40181;51.560;13.000;2022-07-22T03:45:26;2.38;;;1.85;;
54269;SDS011;40181;51.560;13.000;2022-07-22T03:47:55;2.20;;;1.83;;
54269;SDS011;40181;51.560;13.000;2022-07-22T03:50:23;1.45;;;1.25;;
54269;SDS011;40181;51.560;13.000;2022-07-22T03:52:51;2.25;;;1.58;;
54269;SDS011;40181;51.560;13.000;2022-07-22T03:55:20;2.30;;;1.63;;
54269;SDS011;40181;51.560;13.000;2022-07-22T03:57:51;2.13;;;1.80;;
54269;SDS011;40181;51.560;13.000;2022-07-22T04:00:19;1.95;;;1.58;;
54269;SDS011;40181;51.560;13.000;2022-07-22T04:02:47;2.10;;;1.83;;
54269;SDS011;40181;51.560;13.000;2022-07-22T04:05:16;2.85;;;1.85;;
54269;SDS011;40181;51.560;13.000;2022-07-22T04:07:44;2.58;;;2.20;;
54269;SDS011;40181;51.560;13.000;2022-07-22T04:10:12;5.00;;;2.42;;
54269;SDS011;40181;51.560;13.000;2022-07-22T04:12:41;3.67;;;2.22;;
54269;SDS011;40181;51.560;13.000;2022-07-22T04:15:15;4.30;;;2.80;;
54269;SDS011;40181;51.560;13.000;2022-07-22T04:17:44;2.63;;;1.88;;
54269;SDS011;40181;51.560;13.000;2022-07-22T04:20:12;2.85;;;1.90;;
54269;SDS011;40181;51.560;13.000;2022-07-22T04:22:40;2.63;;;2.30;;
54269;SDS011;40181;51.560;13.000;2022-07-22T04:25:09;4.78;;;1.88;;
54269;SDS011;40181;51.560;13.000;2022-07-22T04:27:37;2.45;;;1.88;;
54269;SDS011;40181;51.560;13.000;2022-07-22T04:30:06;2.88;;;2.03;;
54269;SDS011;40181;51.560;13.000;2022-07-22T04:32:38;3.17;;;2.42;;
54269;SDS011;40181;51.560;13.000;2022-07-22T04:35:07;2.80;;;2.05;;
54269;SDS011;40181;51.560;13.000;2022-07-22T04:37:36;3.35;;;2.65;;
54269;SDS011;40181;51.560;13.000;2022-07-22T04:40:05;3.08;;;2.50;;
54269;SDS011;40181;51.560;13.000;2022-07-22T04:42:34;3.78;;;2.72;;
54269;SDS011;40181;51.560;13.000;2022-07-22T04:45:02;4.15;;;2.83;;
54269;SDS011;40181;51.560;13.000;2022-07-22T04:47:31;2.90;;;2.03;;
54269;SDS011;40181;51.560;13.000;2022-07-22T04:50:02;3.08;;;1.90;;
54269;SDS011;40181;51.560;13.000;2022-07-22T04:52:31;2.20;;;1.90;;
54269;SDS011;40181;51.560;13.000;2022-07-22T04:54:59;2.35;;;2.15;;
54269;SDS011;40181;51.560;13.000;2022-07-22T04:57:28;3.85;;;2.40;;
54269;SDS011;40181;51.560;13.000;2022-07-22T04:59:56;3.30;;;2.22;;
54269;SDS011;40181;51.560;13.000;2022-07-22T05:02:25;4.45;;;2.97;;
54269;SDS011;40181;51.560;13.000;2022-07-22T05:04:53;3.05;;;2.30;;
54269;SDS011;40181;51.560;13.000;2022-07-22T05:07:24;2.97;;;2.33;;
54269;SDS011;40181;51.560;13.000;2022-07-22T05:09:53;4.47;;;2.85;;
54269;SDS011;40181;51.560;13.000;2022-07-22T05:12:21;4.00;;;2.63;;
54269;SDS011;40181;51.560;13.000;2022-07-22T05:14:49;3.42;;;2.00;;
54269;SDS011;40181;51.560;13.000;2022-07-22T05:17:18;2.80;;;2.40;;
54269;SDS011;40181;51.560;13.000;2022-07-22T05:19:55;2.35;;;2.03;;
54269;SDS011;40181;51.560;13.000;2022-07-22T05:22:26;2.97;;;2.10;;
54269;SDS011;40181;51.560;13.000;2022-07-22T05:24:54;3.22;;;2.08;;
54269;SDS011;40181;51.560;13.000;2022-07-22T05:27:23;2.55;;;2.00;;
54269;SDS011;40181;51.560;13.000;2022-07-22T05:29:51;2.70;;;1.83;;
54269;SDS011;40181;51.560;13.000;2022-07-22T05:32:19;2.63;;;1.98;;
54269;SDS011;40181;51.560;13.000;2022-07-22T05:34:47;4.00;;;2.70;;
54269;SDS011;40181;51.560;13.000;2022-07-22T05:37:16;2.63;;;2.42;;
54269;SDS011;40181;51.560;13.000;2022-07-22T05:39:47;3.90;;;2.10;;
54269;SDS011;40181;51.560;13.000;2022-07-22T05:42:15;3.55;;;2.67;;
54269;SDS011;40181;51.560;13.000;2022-07-22T05:44:43;12.70;;;2.90;;
54269;SDS011;40181;51.560;13.000;2022-07-22T05:47:12;4.38;;;2.97;;
54269;SDS011;40181;51.560;13.000;2022-07-22T05:49:40;3.00;;;2.47;;
54269;SDS011;40181;51.560;13.000;2022-07-22T05:52:08;11.88;;;3.17;;
54269;SDS011;40181;51.560;13.000;2022-07-22T05:54:36;3.70;;;2.08;;
54269;SDS011;40181;51.560;13.000;2022-07-22T05:57:08;3.17;;;2.25;;
54269;SDS011;40181;51.560;13.000;2022-07-22T05:59:36;2.80;;;2.15;;
54269;SDS011;40181;51.560;13.000;2022-07-22T06:02:05;4.18;;;1.85;;
54269;SDS011;40181;51.560;13.000;2022-07-22T06:04:34;2.78;;;2.08;;
54269;SDS011;40181;51.560;13.000;2022-07-22T06:07:02;5.00;;;2.45;;
54269;SDS011;40181;51.560;13.000;2022-07-22T06:09:31;3.58;;;2.33;;
54269;SDS011;40181;51.560;13.000;2022-07-22T06:11:59;2.72;;;1.70;;
54269;SDS011;40181;51.560;13.000;2022-07-22T06:14:31;2.13;;;1.88;;
54269;SDS011;40181;51.560;13.000;2022-07-22T06:17:01;2.17;;;1.73;;
54269;SDS011;40181;51.560;13.000;2022-07-22T06:19:29;2.50;;;2.10;;
54269;SDS011;40181;51.560;13.000;2022-07-22T06:21:58;2.50;;;1.95;;
54269;SDS011;40181;51.560;13.000;2022-07-22T06:24:26;2.67;;;2.05;;
54269;SDS011;40181;51.560;13.000;2022-07-22T06:26:55;3.10;;;2.25;;
54269;SDS011;40181;51.560;13.000;2022-07-22T06:29:23;3.30;;;2.50;;
54269;SDS011;40181;51.560;13.000;2022-07-22T06:31:54;2.40;;;1.80;;
54269;SDS011;40181;51.560;13.000;2022-07-22T06:34:23;3.42;;;2.05;;
54269;SDS011;40181;51.560;13.000;2022-07-22T06:36:51;2.13;;;1.75;;
54269;SDS011;40181;51.560;13.000;2022-07-22T06:39:19;1.60;;;1.30;;
54269;SDS011;40181;51.560;13.000;2022-07-22T06:41:47;2.15;;;1.63;;
54269;SDS011;40181;51.560;13.000;2022-07-22T06:44:16;2.88;;;2.13;;
54269;SDS011;40181;51.560;13.000;2022-07-22T06:46:44;2.42;;;1.60;;
54269;SDS011;40181;51.560;13.000;2022-07-22T06:49:15;2.58;;;2.17;;
54269;SDS011;40181;51.560;13.000;2022-07-22T06:51:43;1.40;;;1.27;;
54269;SDS011;40181;51.560;13.000;2022-07-22T06:54:12;2.33;;;1.60;;
54269;SDS011;40181;51.560;13.000;2022-07-22T06:56:40;1.95;;;1.23;;
54269;SDS011;40181;51.560;13.000;2022-07-22T06:59:08;2.08;;;1.48;;
54269;SDS011;40181;51.560;13.000;2022-07-22T07:01:36;1.83;;;1.13;;
54269;SDS011;40181;51.560;13.000;2022-07-22T07:04:05;1.88;;;1.20;;
54269;SDS011;40181;51.560;13.000;2022-07-22T07:06:36;1.83;;;0.98;;
54269;SDS011;40181;51.560;13.000;2022-07-22T07:09:04;1.38;;;1.17;;
54269;SDS011;40181;51.560;13.000;2022-07-22T07:11:33;1.63;;;1.23;;
54269;SDS011;40181;51.560;13.000;2022-07-22T07:14:01;2.50;;;1.10;;
54269;SDS011;40181;51.560;13.000;2022-07-22T07:16:30;1.90;;;1.00;;
54269;SDS011;40181;51.560;13.000;2022-07-22T07:18:58;1.15;;;0.82;;
54269;SDS011;40181;51.560;13.000;2022-07-22T07:21:27;1.00;;;0.82;;
54269;SDS011;40181;51.560;13.000;2022-07-22T07:23:58;2.10;;;1.33;;
54269;SDS011;40181;51.560;13.000;2022-07-22T07:26:26;1.02;;;0.88;;
54269;SDS011;40181;51.560;13.000;2022-07-22T07:28:55;1.92;;;1.10;;
54269;SDS011;40181;51.560;13.000;2022-07-22T07:31:23;1.30;;;1.10;;
54269;SDS011;40181;51.560;13.000;2022-07-22T07:33:51;1.20;;;1.10;;
54269;SDS011;40181;51.560;13.000;2022-07-22T07:36:20;2.90;;;1.20;;
54269;SDS011;40181;51.560;13.000;2022-07-22T07:38:48;1.20;;;1.10;;
54269;SDS011;40181;51.560;13.000;2022-07-22T07:41:19;1.65;;;1.10;;
54269;SDS011;40181;51.560;13.000;2022-07-22T07:43:48;1.63;;;1.08;;
54269;SDS011;40181;51.560;13.000;2022-07-22T07:46:16;2.10;;;1.48;;
54269;SDS011;40181;51.560;13.000;2022-07-22T07:48:44;2.97;;;1.85;;
54269;SDS011;40181;51.560;13.000;2022-07-22T07:51:13;1.80;;;1.50;;
54269;SDS011;40181;51.560;13.000;2022-07-22T07:53:41;2.20;;;1.48;;
54269;SDS011;40181;51.560;13.000;2022-07-22T07:56:10;2.15;;;1.40;;
54269;SDS011;40181;51.560;13.000;2022-07-22T07:58:41;3.83;;;1.83;;
54269;SDS011;40181;51.560;13.000;2022-07-22T08:01:09;2.33;;;1.70;;
54269;SDS011;40181;51.560;13.000;2022-07-22T08:03:37;2.15;;;1.30;;
54269;SDS011;40181;51.560;13.000;2022-07-22T08:06:06;1.05;;;0.75;;
54269;SDS011;40181;51.560;13.000;2022-07-22T08:08:34;1.52;;;1.20;;
54269;SDS011;40181;51.560;13.000;2022-07-22T08:11:03;2.05;;;1.35;;
54269;SDS011;40181;51.560;13.000;2022-07-22T08:13:31;1.65;;;1.05;;
54269;SDS011;40181;51.560;13.000;2022-07-22T08:16:02;7.28;;;1.65;;
54269;SDS011;40181;51.560;13.000;2022-07-22T08:18:31;4.10;;;1.15;;
54269;SDS011;40181;51.560;13.000;2022-07-22T08:21:00;1.58;;;1.15;;
54269;SDS011;40181;51.560;13.000;2022-07-22T08:23:28;3.03;;;1.10;;
54269;SDS011;40181;51.560;13.000;2022-07-22T08:25:56;5.97;;;1.33;;
54269;SDS011;40181;51.560;13.000;2022-07-22T08:28:25;2.35;;;1.48;;
54269;SDS011;40181;51.560;13.000;2022-07-22T08:30:55;1.50;;;1.23;;
54269;SDS011;40181;51.560;13.000;2022-07-22T08:33:28;1.33;;;1.20;;
54269;SDS011;40181;51.560;13.000;2022-07-22T08:35:56;2.03;;;1.23;;
54269;SDS011;40181;51.560;13.000;2022-07-22T08:38:24;1.48;;;1.15;;
54269;SDS011;40181;51.560;13.000;2022-07-22T08:40:53;1.95;;;1.00;;
54269;SDS011;40181;51.560;13.000;2022-07-22T08:43:22;1.55;;;1.30;;
54269;SDS011;40181;51.560;13.000;2022-07-22T08:45:51;1.17;;;0.85;;
54269;SDS011;40181;51.560;13.000;2022-07-22T08:48:20;1.10;;;0.77;;
54269;SDS011;40181;51.560;13.000;2022-07-22T08:50:51;2.17;;;1.20;;
54269;SDS011;40181;51.560;13.000;2022-07-22T08:53:19;0.90;;;0.70;;
54269;SDS011;40181;51.560;13.000;2022-07-22T08:55:48;1.27;;;0.77;;
54269;SDS011;40181;51.560;13.000;2022-07-22T08:58:16;1.48;;;1.20;;
54269;SDS011;40181;51.560;13.000;2022-07-22T09:00:45;1.90;;;1.23;;
54269;SDS011;40181;51.560;13.000;2022-07-22T09:03:17;1.92;;;1.23;;
54269;SDS011;40181;51.560;13.000;2022-07-22T09:05:47;2.63;;;1.50;;
54269;SDS011;40181;51.560;13.000;2022-07-22T09:08:18;2.03;;;1.30;;
54269;SDS011;40181;51.560;13.000;2022-07-22T09:10:47;1.00;;;0.75;;
54269;SDS011;40181;51.560;13.000;2022-07-22T09:13:16;4.00;;;1.00;;
54269;SDS011;40181;51.560;13.000;2022-07-22T09:15:48;3.78;;;1.45;;
54269;SDS011;40181;51.560;13.000;2022-07-22T09:18:18;1.92;;;1.38;;
54269;SDS011;40181;51.560;13.000;2022-07-22T09:20:46;1.23;;;1.10;;
54269;SDS011;40181;51.560;13.000;2022-07-22T09:23:18;1.33;;;0.95;;
54269;SDS011;40181;51.560;13.000;2022-07-22T09:25:49;1.85;;;0.95;;
54269;SDS011;40181;51.560;13.000;2022-07-22T09:28:18;2.55;;;1.27;;
54269;SDS011;40181;51.560;13.000;2022-07-22T09:30:49;2.03;;;1.35;;
54269;SDS011;40181;51.560;13.000;2022-07-22T09:33:19;2.78;;;1.33;;
54269;SDS011;40181;51.560;13.000;2022-07-22T09:35:48;2.25;;;1.35;;
54269;SDS011;40181;51.560;13.000;2022-07-22T09:38:27;3.25;;;1.13;;
54269;SDS011;40181;51.560;13.000;2022-07-22T09:40:56;0.73;;;0.63;;
54269;SDS011;40181;51.560;13.000;2022-07-22T09:43:26;2.07;;;1.30;;
54269;SDS011;40181;51.560;13.000;2022-07-22T09:45:59;1.80;;;1.23;;
54269;SDS011;40181;51.560;13.000;2022-07-22T09:48:29;0.98;;;0.88;;
54269;SDS011;40181;51.560;13.000;2022-07-22T09:50:58;1.17;;;1.08;;
54269;SDS011;40181;51.560;13.000;2022-07-22T09:53:29;2.30;;;1.30;;
54269;SDS011;40181;51.560;13.000;2022-07-22T09:56:00;0.70;;;0.70;;
54269;SDS011;40181;51.560;13.000;2022-07-22T10:00:58;2.00;;;1.35;;
54269;SDS011;40181;51.560;13.000;2022-07-22T10:03:34;1.95;;;1.10;;
54269;SDS011;40181;51.560;13.000;2022-07-22T10:06:05;2.03;;;1.25;;
54269;SDS011;40181;51.560;13.000;2022-07-22T10:08:37;1.27;;;1.00;;
54269;SDS011;40181;51.560;13.000;2022-07-22T10:11:06;2.35;;;1.30;;
54269;SDS011;40181;51.560;13.000;2022-07-22T10:13:35;5.97;;;1.20;;
54269;SDS011;40181;51.560;13.000;2022-07-22T10:16:06;2.63;;;1.05;;
54269;SDS011;40181;51.560;13.000;2022-07-22T10:18:35;1.60;;;1.10;;
54269;SDS011;40181;51.560;13.000;2022-07-22T10:21:05;1.30;;;1.00;;
54269;SDS011;40181;51.560;13.000;2022-07-22T10:23:35;0.77;;;0.60;;
54269;SDS011;40181;51.560;13.000;2022-07-22T10:26:40;1.98;;;1.23;;
54269;SDS011;40181;51.560;13.000;2022-07-22T10:32:21;0.80;;;0.70;;
54269;SDS011;40181;51.560;13.000;2022-07-22T10:37:57;1.02;;;0.80;;
54269;SDS011;40181;51.560;13.000;2022-07-22T10:40:31;1.80;;;1.00;;
54269;SDS011;40181;51.560;13.000;2022-07-22T10:43:13;2.08;;;0.70;;
54269;SDS011;40181;51.560;13.000;2022-07-22T10:45:44;0.77;;;0.60;;
54269;SDS011;40181;51.560;13.000;2022-07-22T10:48:14;1.13;;;0.77;;
54269;SDS011;40181;51.560;13.000;2022-07-22T10:53:18;1.48;;;0.80;;
54269;SDS011;40181;51.560;13.000;2022-07-22T10:56:01;0.90;;;0.80;;
54269;SDS011;40181;51.560;13.000;2022-07-22T10:58:47;1.00;;;0.47;;
54269;SDS011;40181;51.560;13.000;2022-07-22T11:01:27;1.17;;;0.68;;
54269;SDS011;40181;51.560;13.000;2022-07-22T11:04:08;1.90;;;0.85;;
54269;SDS011;40181;51.560;13.000;2022-07-22T11:06:37;1.05;;;0.70;;
54269;SDS011;40181;51.560;13.000;2022-07-22T11:09:06;1.13;;;0.57;;
54269;SDS011;40181;51.560;13.000;2022-07-22T11:14:13;1.20;;;0.82;;
54269;SDS011;40181;51.560;13.000;2022-07-22T11:16:42;1.48;;;0.93;;
54269;SDS011;40181;51.560;13.000;2022-07-22T11:19:12;0.77;;;0.70;;
54269;SDS011;40181;51.560;13.000;2022-07-22T11:21:41;0.88;;;0.88;;
54269;SDS011;40181;51.560;13.000;2022-07-22T11:24:09;0.98;;;0.88;;
54269;SDS011;40181;51.560;13.000;2022-07-22T11:26:42;3.80;;;0.95;;
54269;SDS011;40181;51.560;13.000;2022-07-22T11:29:15;0.95;;;0.63;;
54269;SDS011;40181;51.560;13.000;2022-07-22T11:31:44;1.73;;;1.20;;
54269;SDS011;40181;51.560;13.000;2022-07-22T11:34:14;1.02;;;0.70;;
54269;SDS011;40181;51.560;13.000;2022-07-22T11:36:45;1.90;;;0.75;;
54269;SDS011;40181;51.560;13.000;2022-07-22T11:39:17;0.75;;;0.50;;
54269;SDS011;40181;51.560;13.000;2022-07-22T11:41:50;1.25;;;0.65;;
54269;SDS011;40181;51.560;13.000;2022-07-22T11:44:20;0.85;;;0.63;;
54269;SDS011;40181;51.560;13.000;2022-07-22T11:46:50;1.15;;;0.50;;
54269;SDS011;40181;51.560;13.000;2022-07-22T11:49:23;1.08;;;0.75;;
54269;SDS011;40181;51.560;13.000;2022-07-22T11:51:53;1.25;;;0.65;;
54269;SDS011;40181;51.560;13.000;2022-07-22T11:54:21;1.13;;;0.57;;
54269;SDS011;40181;51.560;13.000;2022-07-22T11:56:53;0.77;;;0.50;;
54269;SDS011;40181;51.560;13.000;2022-07-22T11:59:21;0.20;;;0.20;;
54269;SDS011;40181;51.560;13.000;2022-07-22T12:01:49;0.60;;;0.50;;
54269;SDS011;40181;51.560;13.000;2022-07-22T12:04:18;2.78;;;0.70;;
54269;SDS011;40181;51.560;13.000;2022-07-22T12:06:49;0.40;;;0.40;;
54269;SDS011;40181;51.560;13.000;2022-07-22T12:09:20;1.55;;;0.57;;
54269;SDS011;40181;51.560;13.000;2022-07-22T12:11:51;0.52;;;0.40;;
54269;SDS011;40181;51.560;13.000;2022-07-22T12:14:24;0.50;;;0.40;;
54269;SDS011;40181;51.560;13.000;2022-07-22T12:16:55;1.27;;;0.35;;
54269;SDS011;40181;51.560;13.000;2022-07-22T12:19:25;0.30;;;0.20;;
54269;SDS011;40181;51.560;13.000;2022-07-22T12:21:55;0.47;;;0.40;;
54269;SDS011;40181;51.560;13.000;2022-07-22T12:26:57;0.40;;;0.40;;
54269;SDS011;40181;51.560;13.000;2022-07-22T12:29:27;0.90;;;0.52;;
54269;SDS011;40181;51.560;13.000;2022-07-22T12:31:58;0.35;;;0.28;;
54269;SDS011;40181;51.560;13.000;2022-07-22T12:34:32;0.43;;;0.20;;
54269;SDS011;40181;51.560;13.000;2022-07-22T12:37:16;0.95;;;0.43;;
54269;SDS011;40181;51.560;13.000;2022-07-22T12:39:52;0.30;;;0.30;;
54269;SDS011;40181;51.560;13.000;2022-07-22T12:42:28;0.50;;;0.40;;
54269;SDS011;40181;51.560;13.000;2022-07-22T12:45:02;0.40;;;0.40;;
54269;SDS011;40181;51.560;13.000;2022-07-22T12:47:42;0.68;;;0.50;;
54269;SDS011;40181;51.560;13.000;2022-07-22T12:50:20;2.03;;;0.70;;
54269;SDS011;40181;51.560;13.000;2022-07-22T12:52:51;1.48;;;0.93;;
54269;SDS011;40181;51.560;13.000;2022-07-22T12:55:21;0.65;;;0.60;;
54269;SDS011;40181;51.560;13.000;2022-07-22T12:57:53;1.02;;;0.70;;
54269;SDS011;40181;51.560;13.000;2022-07-22T13:00:22;0.73;;;0.55;;
54269;SDS011;40181;51.560;13.000;2022-07-22T13:02:51;4.10;;;1.00;;
54269;SDS011;40181;51.560;13.000;2022-07-22T13:05:21;1.02;;;0.57;;
54269;SDS011;40181;51.560;13.000;2022-07-22T13:07:49;0.30;;;0.30;;
54269;SDS011;40181;51.560;13.000;2022-07-22T13:10:19;0.47;;;0.22;;
54269;SDS011;40181;51.560;13.000;2022-07-22T13:12:48;0.43;;;0.40;;
54269;SDS011;40181;51.560;13.000;2022-07-22T13:15:20;0.60;;;0.57;;
54269;SDS011;40181;51.560;13.000;2022-07-22T13:17:49;0.80;;;0.50;;
54269;SDS011;40181;51.560;13.000;2022-07-22T13:20:18;0.63;;;0.60;;
54269;SDS011;40181;51.560;13.000;2022-07-22T13:22:46;1.15;;;0.82;;
54269;SDS011;40181;51.560;13.000;2022-07-22T13:25:15;0.57;;;0.50;;
54269;SDS011;40181;51.560;13.000;2022-07-22T13:27:44;0.50;;;0.50;;
54269;SDS011;40181;51.560;13.000;2022-07-22T13:30:13;1.35;;;0.70;;
54269;SDS011;40181;51.560;13.000;2022-07-22T13:32:44;0.82;;;0.55;;
54269;SDS011;40181;51.560;13.000;2022-07-22T13:35:12;1.05;;;0.43;;
54269;SDS011;40181;51.560;13.000;2022-07-22T13:37:41;0.43;;;0.40;;
54269;SDS011;40181;51.560;13.000;2022-07-22T13:40:09;0.77;;;0.47;;
54269;SDS011;40181;51.560;13.000;2022-07-22T13:42:38;0.77;;;0.60;;
54269;SDS011;40181;51.560;13.000;2022-07-22T13:45:06;2.47;;;0.80;;
54269;SDS011;40181;51.560;13.000;2022-07-22T13:47:36;1.20;;;0.63;;
54269;SDS011;40181;51.560;13.000;2022-07-22T13:50:08;0.82;;;0.60;;
54269;SDS011;40181;51.560;13.000;2022-07-22T13:52:37;0.88;;;0.70;;
54269;SDS011;40181;51.560;13.000;2022-07-22T13:55:06;1.20;;;0.85;;
54269;SDS011;40181;51.560;13.000;2022-07-22T13:57:35;1.40;;;0.70;;
54269;SDS011;40181;51.560;13.000;2022-07-22T14:00:03;0.30;;;0.30;;
54269;SDS011;40181;51.560;13.000;2022-07-22T14:05:01;0.57;;;0.50;;
54269;SDS011;40181;51.560;13.000;2022-07-22T14:07:32;1.17;;;0.60;;
54269;SDS011;40181;51.560;13.000;2022-07-22T14:10:01;0.57;;;0.55;;
54269;SDS011;40181;51.560;13.000;2022-07-22T14:12:30;0.93;;;0.50;;
54269;SDS011;40181;51.560;13.000;2022-07-22T14:14:58;1.30;;;0.50;;
54269;SDS011;40181;51.560;13.000;2022-07-22T14:17:26;2.28;;;0.90;;
54269;SDS011;40181;51.560;13.000;2022-07-22T14:19:55;2.88;;;0.80;;
54269;SDS011;40181;51.560;13.000;2022-07-22T14:22:24;0.60;;;0.57;;
54269;SDS011;40181;51.560;13.000;2022-07-22T14:24:55;3.35;;;0.60;;
54269;SDS011;40181;51.560;13.000;2022-07-22T14:27:24;1.35;;;0.93;;
54269;SDS011;40181;51.560;13.000;2022-07-22T14:29:52;0.50;;;0.50;;
54269;SDS011;40181;51.560;13.000;2022-07-22T14:32:20;0.60;;;0.50;;
54269;SDS011;40181;51.560;13.000;2022-07-22T14:34:48;0.60;;;0.60;;
54269;SDS011;40181;51.560;13.000;2022-07-22T14:37:17;0.60;;;0.60;;
54269;SDS011;40181;51.560;13.000;2022-07-22T14:39:45;0.75;;;0.75;;
54269;SDS011;40181;51.560;13.000;2022-07-22T14:42:16;0.77;;;0.55;;
54269;SDS011;40181;51.560;13.000;2022-07-22T14:44:44;0.40;;;0.40;;
54269;SDS011;40181;51.560;13.000;2022-07-22T14:47:13;3.55;;;1.13;;
54269;SDS011;40181;51.560;13.000;2022-07-22T14:49:41;1.60;;;0.80;;
54269;SDS011;40181;51.560;13.000;2022-07-22T14:52:09;1.38;;;0.80;;
54269;SDS011;40181;51.560;13.000;2022-07-22T14:54:37;1.05;;;0.77;;
54269;SDS011;40181;51.560;13.000;2022-07-22T14:57:06;1.05;;;0.80;;
54269;SDS011;40181;51.560;13.000;2022-07-22T14:59:37;1.00;;;0.65;;
54269;SDS011;40181;51.560;13.000;2022-07-22T15:02:05;0.88;;;0.77;;
54269;SDS011;40181;51.560;13.000;2022-07-22T15:04:33;1.27;;;0.95;;
54269;SDS011;40181;51.560;13.000;2022-07-22T15:07:02;9.35;;;0.85;;